PWSweather.com
Personal Weather Stations
Station Observations
KNVELKO7
Elko, NV 89801

Elko, NV 89801

Lat: 40.963233, Lon: -115.592836

Elevation: 5230

Station Type: WS-2812

Latest ConditionsUpdated 4:00:07 PM PST Thursday, Nov 27, 2014
Currently Today's Max Today's Min Today's Average
Temperature 55.3°F12.9°C 59.8°F15.4°C 38.7°F3.7°C 48.0°F8.9°C
Dew Point 31.9°F-0.1°C 36.9°F2.7°C 26.6°F-3.0°C 30.6°F-0.8°C
Winds 6.1 mph SW9.8 kmh SW 12.4 mph WSW20.0 kmh WSW - 4.5 mph 7.2 kmh
Wind Gusts 7.6 mph12.2 kmh 13.2 mph21.2 kmh - -
Humidity 41% 66% 38% 51%
Pressure 30.15 in1021.0 mb 30.28 in1025.4 mb 30.15 in1021.0 mb -
Hour Temp Dew Point Humidity Winds Wind Gusts Pressure Precip Precip Rate Daily Precip Total
04:00 PM 55.3°F12.9°C 31.9°F-0.1°C 41% 6.1 mph SW9.8 kmh SW 7.6 mph12.2 kmh 30.15 in1021.0 mb 0.00 in0.0 mm 0.00 in/hr0.0 mm/hr 0.00 in0.0 mm
03:56 PM 55.4°F13.0°C 32.0°F0.0°C 41% 4.9 mph W7.9 kmh W 7.4 mph11.9 kmh 30.15 in1021.0 mb 0.00 in0.0 mm 0.00 in/hr0.0 mm/hr 0.00 in0.0 mm
03:51 PM 55.8°F13.2°C 31.9°F-0.1°C 40% 5.9 mph SW9.5 kmh SW 7.4 mph11.9 kmh 30.15 in1021.0 mb 0.00 in0.0 mm 0.00 in/hr0.0 mm/hr 0.00 in0.0 mm
03:46 PM 56.2°F13.4°C 32.1°F0.1°C 40% 5.6 mph SW9.0 kmh SW 7.8 mph12.6 kmh 30.15 in1021.0 mb 0.00 in0.0 mm 0.00 in/hr0.0 mm/hr 0.00 in0.0 mm
03:41 PM 56.2°F13.4°C 32.7°F0.4°C 41% 5.7 mph SW9.2 kmh SW 7.8 mph12.6 kmh 30.15 in1021.0 mb 0.00 in0.0 mm 0.00 in/hr0.0 mm/hr 0.00 in0.0 mm
03:36 PM 56.3°F13.5°C 32.9°F0.5°C 41% 3.5 mph SW5.6 kmh SW 5.6 mph9.0 kmh 30.15 in1021.0 mb 0.00 in0.0 mm 0.00 in/hr0.0 mm/hr 0.00 in0.0 mm
03:31 PM 56.7°F13.7°C 33.2°F0.7°C 41% 4.3 mph SW6.9 kmh SW 6.9 mph11.1 kmh 30.15 in1021.0 mb 0.00 in0.0 mm 0.00 in/hr0.0 mm/hr 0.00 in0.0 mm
03:26 PM 56.9°F13.8°C 33.4°F0.8°C 41% 4.7 mph WSW7.6 kmh WSW 6.9 mph11.1 kmh 30.15 in1021.0 mb 0.00 in0.0 mm 0.00 in/hr0.0 mm/hr 0.00 in0.0 mm
03:21 PM 57.2°F14.0°C 34.3°F1.3°C 42% 4.3 mph SW6.9 kmh SW 6.3 mph10.1 kmh 30.15 in1021.0 mb 0.00 in0.0 mm 0.00 in/hr0.0 mm/hr 0.00 in0.0 mm
03:16 PM 57.2°F14.0°C 34.8°F1.6°C 43% 4.3 mph SW6.9 kmh SW 6.3 mph10.1 kmh 30.15 in1021.0 mb 0.00 in0.0 mm 0.00 in/hr0.0 mm/hr 0.00 in0.0 mm
03:11 PM 57.6°F14.2°C 35.2°F1.8°C 43% 3.9 mph SW6.3 kmh SW 6.0 mph9.7 kmh 30.15 in1021.0 mb 0.00 in0.0 mm 0.00 in/hr0.0 mm/hr 0.00 in0.0 mm
03:06 PM 57.8°F14.3°C 35.4°F1.9°C 43% 5.2 mph SW8.4 kmh SW 6.0 mph9.7 kmh 30.15 in1021.0 mb 0.00 in0.0 mm 0.00 in/hr0.0 mm/hr 0.00 in0.0 mm
03:01 PM 58.0°F14.4°C 36.1°F2.3°C 44% 3.9 mph SW6.3 kmh SW 5.1 mph8.2 kmh 30.16 in1021.3 mb 0.00 in0.0 mm 0.00 in/hr0.0 mm/hr 0.00 in0.0 mm
02:56 PM 58.3°F14.6°C 36.4°F2.4°C 44% 3.3 mph SW5.3 kmh SW 4.9 mph7.9 kmh 30.16 in1021.3 mb 0.00 in0.0 mm 0.00 in/hr0.0 mm/hr 0.00 in0.0 mm
02:51 PM 58.3°F14.6°C 36.4°F2.4°C 44% 3.4 mph SW5.5 kmh SW 4.9 mph7.9 kmh 30.16 in1021.3 mb 0.00 in0.0 mm 0.00 in/hr0.0 mm/hr 0.00 in0.0 mm
02:46 PM 58.5°F14.7°C 36.0°F2.2°C 43% 2.8 mph SW4.5 kmh SW 3.8 mph6.1 kmh 30.16 in1021.3 mb 0.00 in0.0 mm 0.00 in/hr0.0 mm/hr 0.00 in0.0 mm
02:41 PM 58.7°F14.8°C 36.2°F2.3°C 43% 2.5 mph WSW4.0 kmh WSW 3.4 mph5.5 kmh 30.16 in1021.3 mb 0.00 in0.0 mm 0.00 in/hr0.0 mm/hr 0.00 in0.0 mm
02:36 PM 58.7°F14.8°C 36.2°F2.3°C 43% 2.2 mph WSW3.5 kmh WSW 3.1 mph5.0 kmh 30.16 in1021.3 mb 0.00 in0.0 mm 0.00 in/hr0.0 mm/hr 0.00 in0.0 mm
02:31 PM 58.7°F14.8°C 36.2°F2.3°C 43% 2.9 mph SW4.7 kmh SW 4.7 mph7.6 kmh 30.16 in1021.3 mb 0.00 in0.0 mm 0.00 in/hr0.0 mm/hr 0.00 in0.0 mm
02:26 PM 58.7°F14.8°C 36.2°F2.3°C 43% 2.7 mph SW4.3 kmh SW 5.6 mph9.0 kmh 30.16 in1021.3 mb 0.00 in0.0 mm 0.00 in/hr0.0 mm/hr 0.00 in0.0 mm
02:21 PM 58.7°F14.8°C 36.2°F2.3°C 43% 3.0 mph WSW4.8 kmh WSW 5.6 mph9.0 kmh 30.16 in1021.3 mb 0.00 in0.0 mm 0.00 in/hr0.0 mm/hr 0.00 in0.0 mm
02:16 PM 58.9°F14.9°C 36.3°F2.4°C 43% 3.3 mph SW5.3 kmh SW 5.4 mph8.7 kmh 30.16 in1021.3 mb 0.00 in0.0 mm 0.00 in/hr0.0 mm/hr 0.00 in0.0 mm
02:11 PM 58.9°F14.9°C 36.3°F2.4°C 43% 3.4 mph SW5.5 kmh SW 5.4 mph8.7 kmh 30.16 in1021.3 mb 0.00 in0.0 mm 0.00 in/hr0.0 mm/hr 0.00 in0.0 mm
02:06 PM 58.7°F14.8°C 35.6°F2.0°C 42% 3.5 mph SW5.6 kmh SW 5.4 mph8.7 kmh 30.16 in1021.3 mb 0.00 in0.0 mm 0.00 in/hr0.0 mm/hr 0.00 in0.0 mm
02:01 PM 58.7°F14.8°C 35.6°F2.0°C 42% 4.8 mph WSW7.7 kmh WSW 5.4 mph8.7 kmh 30.16 in1021.3 mb 0.00 in0.0 mm 0.00 in/hr0.0 mm/hr 0.00 in0.0 mm
01:56 PM 58.7°F14.8°C 35.6°F2.0°C 42% 1.7 mph SW2.7 kmh SW 4.5 mph7.2 kmh 30.16 in1021.3 mb 0.00 in0.0 mm 0.00 in/hr0.0 mm/hr 0.00 in0.0 mm
01:51 PM 58.7°F14.8°C 35.6°F2.0°C 42% 2.8 mph WSW4.5 kmh WSW 5.6 mph9.0 kmh 30.16 in1021.3 mb 0.00 in0.0 mm 0.00 in/hr0.0 mm/hr 0.00 in0.0 mm
01:46 PM 58.7°F14.8°C 35.6°F2.0°C 42% 4.0 mph SW6.4 kmh SW 5.6 mph9.0 kmh 30.16 in1021.3 mb 0.00 in0.0 mm 0.00 in/hr0.0 mm/hr 0.00 in0.0 mm
01:41 PM 58.5°F14.7°C 34.8°F1.6°C 41% 4.2 mph WSW6.8 kmh WSW 5.6 mph9.0 kmh 30.17 in1021.7 mb 0.00 in0.0 mm 0.00 in/hr0.0 mm/hr 0.00 in0.0 mm
01:36 PM 58.5°F14.7°C 34.8°F1.6°C 41% 3.8 mph SW6.1 kmh SW 6.9 mph11.1 kmh 30.17 in1021.7 mb 0.00 in0.0 mm 0.00 in/hr0.0 mm/hr 0.00 in0.0 mm
01:31 PM 58.5°F14.7°C 34.8°F1.6°C 41% 5.8 mph SW9.3 kmh SW 7.2 mph11.6 kmh 30.17 in1021.7 mb 0.00 in0.0 mm 0.00 in/hr0.0 mm/hr 0.00 in0.0 mm
01:26 PM 58.7°F14.8°C 35.0°F1.7°C 41% 5.4 mph WSW8.7 kmh WSW 7.2 mph11.6 kmh 30.17 in1021.7 mb 0.00 in0.0 mm 0.00 in/hr0.0 mm/hr 0.00 in0.0 mm
01:21 PM 58.7°F14.8°C 35.0°F1.7°C 41% 5.5 mph WSW8.9 kmh WSW 6.5 mph10.5 kmh 30.17 in1021.7 mb 0.00 in0.0 mm 0.00 in/hr0.0 mm/hr 0.00 in0.0 mm
01:16 PM 58.7°F14.8°C 34.4°F1.3°C 40% 4.6 mph SW7.4 kmh SW 8.9 mph14.3 kmh 30.17 in1021.7 mb 0.00 in0.0 mm 0.00 in/hr0.0 mm/hr 0.00 in0.0 mm
01:11 PM 58.7°F14.8°C 34.4°F1.3°C 40% 6.1 mph SW9.8 kmh SW 8.9 mph14.3 kmh 30.18 in1022.0 mb 0.00 in0.0 mm 0.00 in/hr0.0 mm/hr 0.00 in0.0 mm
01:06 PM 58.7°F14.8°C 34.4°F1.3°C 40% 5.4 mph SW8.7 kmh SW 7.8 mph12.6 kmh 30.18 in1022.0 mb 0.00 in0.0 mm 0.00 in/hr0.0 mm/hr 0.00 in0.0 mm
01:01 PM 58.7°F14.8°C 34.4°F1.3°C 40% 7.1 mph WSW11.4 kmh WSW 9.4 mph15.1 kmh 30.18 in1022.0 mb 0.00 in0.0 mm 0.00 in/hr0.0 mm/hr 0.00 in0.0 mm
12:55 PM 58.7°F14.8°C 34.4°F1.3°C 40% 5.9 mph SW9.5 kmh SW 9.4 mph15.1 kmh 30.18 in1022.0 mb 0.00 in0.0 mm 0.00 in/hr0.0 mm/hr 0.00 in0.0 mm
12:50 PM 58.7°F14.8°C 34.4°F1.3°C 40% 7.1 mph SW11.4 kmh SW 7.6 mph12.2 kmh 30.18 in1022.0 mb 0.00 in0.0 mm 0.00 in/hr0.0 mm/hr 0.00 in0.0 mm
12:45 PM 58.7°F14.8°C 33.8°F1.0°C 39% 6.5 mph SW10.5 kmh SW 10.1 mph16.3 kmh 30.18 in1022.0 mb 0.00 in0.0 mm 0.00 in/hr0.0 mm/hr 0.00 in0.0 mm
12:40 PM 58.7°F14.8°C 33.8°F1.0°C 39% 5.1 mph SW8.2 kmh SW 10.1 mph16.3 kmh 30.19 in1022.4 mb 0.00 in0.0 mm 0.00 in/hr0.0 mm/hr 0.00 in0.0 mm
12:36 PM 58.7°F14.8°C 33.0°F0.6°C 38% 8.5 mph SW13.7 kmh SW 9.8 mph15.8 kmh 30.19 in1022.4 mb 0.00 in0.0 mm 0.00 in/hr0.0 mm/hr 0.00 in0.0 mm
12:31 PM 59.0°F15.0°C 34.0°F1.1°C 39% 8.1 mph SW13.0 kmh SW 9.8 mph15.8 kmh 30.19 in1022.4 mb 0.00 in0.0 mm 0.00 in/hr0.0 mm/hr 0.00 in0.0 mm
12:26 PM 59.0°F15.0°C 34.0°F1.1°C 39% 8.6 mph SW13.8 kmh SW 11.0 mph17.7 kmh 30.19 in1022.4 mb 0.00 in0.0 mm 0.00 in/hr0.0 mm/hr 0.00 in0.0 mm
12:21 PM 59.2°F15.1°C 34.2°F1.2°C 39% 7.1 mph SW11.4 kmh SW 11.0 mph17.7 kmh 30.19 in1022.4 mb 0.00 in0.0 mm 0.00 in/hr0.0 mm/hr 0.00 in0.0 mm
12:16 PM 59.4°F15.2°C 35.1°F1.7°C 40% 6.4 mph WSW10.3 kmh WSW 8.7 mph14.0 kmh 30.20 in1022.7 mb 0.00 in0.0 mm 0.00 in/hr0.0 mm/hr 0.00 in0.0 mm
12:11 PM 59.6°F15.3°C 35.2°F1.8°C 40% 6.6 mph SW10.6 kmh SW 7.6 mph12.2 kmh 30.20 in1022.7 mb 0.00 in0.0 mm 0.00 in/hr0.0 mm/hr 0.00 in0.0 mm
12:06 PM 59.6°F15.3°C 35.8°F2.1°C 41% 5.7 mph SW9.2 kmh SW 7.6 mph12.2 kmh 30.20 in1022.7 mb 0.00 in0.0 mm 0.00 in/hr0.0 mm/hr 0.00 in0.0 mm
12:01 PM 59.8°F15.4°C 36.5°F2.5°C 42% 2.7 mph WSW4.3 kmh WSW 6.0 mph9.7 kmh 30.20 in1022.7 mb 0.00 in0.0 mm 0.00 in/hr0.0 mm/hr 0.00 in0.0 mm
11:55 AM 59.6°F15.3°C 36.4°F2.4°C 42% 3.0 mph SW4.8 kmh SW 6.0 mph9.7 kmh 30.20 in1022.7 mb 0.00 in0.0 mm 0.00 in/hr0.0 mm/hr 0.00 in0.0 mm
11:50 AM 59.4°F15.2°C 36.8°F2.7°C 43% 3.6 mph WSW5.8 kmh WSW 4.7 mph7.6 kmh 30.21 in1023.0 mb 0.00 in0.0 mm 0.00 in/hr0.0 mm/hr 0.00 in0.0 mm
11:45 AM 58.9°F14.9°C 36.9°F2.7°C 44% 2.6 mph SW4.2 kmh SW 3.4 mph5.5 kmh 30.21 in1023.0 mb 0.00 in0.0 mm 0.00 in/hr0.0 mm/hr 0.00 in0.0 mm
11:40 AM 58.3°F14.6°C 36.4°F2.4°C 44% 1.5 mph SSE2.4 kmh SSE 2.0 mph3.2 kmh 30.21 in1023.0 mb 0.00 in0.0 mm 0.00 in/hr0.0 mm/hr 0.00 in0.0 mm
11:35 AM 57.6°F14.2°C 35.2°F1.8°C 43% 0.3 mph SE0.5 kmh SE 0.4 mph0.6 kmh 30.21 in1023.0 mb 0.00 in0.0 mm 0.00 in/hr0.0 mm/hr 0.00 in0.0 mm
11:30 AM 57.2°F14.0°C 34.8°F1.6°C 43% 0.2 mph NW0.3 kmh NW 1.8 mph2.9 kmh 30.22 in1023.4 mb 0.00 in0.0 mm 0.00 in/hr0.0 mm/hr 0.00 in0.0 mm
11:25 AM 56.7°F13.7°C 34.9°F1.6°C 44% 1.6 mph SSW2.6 kmh SSW 2.5 mph4.0 kmh 30.22 in1023.4 mb 0.00 in0.0 mm 0.00 in/hr0.0 mm/hr 0.00 in0.0 mm
11:20 AM 56.3°F13.5°C 35.1°F1.7°C 45% 1.7 mph SW2.7 kmh SW 3.4 mph5.5 kmh 30.22 in1023.4 mb 0.00 in0.0 mm 0.00 in/hr0.0 mm/hr 0.00 in0.0 mm
11:15 AM 55.8°F13.2°C 34.7°F1.5°C 45% 2.0 mph WSW3.2 kmh WSW 3.4 mph5.5 kmh 30.22 in1023.4 mb 0.00 in0.0 mm 0.00 in/hr0.0 mm/hr 0.00 in0.0 mm
11:10 AM 55.4°F13.0°C 34.3°F1.3°C 45% 1.1 mph WSW1.8 kmh WSW 4.7 mph7.6 kmh 30.23 in1023.7 mb 0.00 in0.0 mm 0.00 in/hr0.0 mm/hr 0.00 in0.0 mm
11:05 AM 55.4°F13.0°C 34.3°F1.3°C 45% 1.1 mph NW1.8 kmh NW 4.7 mph7.6 kmh 30.23 in1023.7 mb 0.00 in0.0 mm 0.00 in/hr0.0 mm/hr 0.00 in0.0 mm
11:01 AM 55.3°F12.9°C 34.7°F1.5°C 46% 0.5 mph NNW0.8 kmh NNW 1.6 mph2.6 kmh 30.23 in1023.7 mb 0.00 in0.0 mm 0.00 in/hr0.0 mm/hr 0.00 in0.0 mm
10:55 AM 54.9°F12.7°C 34.9°F1.6°C 47% 1.0 mph WSW1.6 kmh WSW 1.6 mph2.6 kmh 30.23 in1023.7 mb 0.00 in0.0 mm 0.00 in/hr0.0 mm/hr 0.00 in0.0 mm
10:50 AM 54.5°F12.5°C 35.2°F1.8°C 48% 0.8 mph S1.3 kmh S 1.3 mph2.1 kmh 30.24 in1024.0 mb 0.00 in0.0 mm 0.00 in/hr0.0 mm/hr 0.00 in0.0 mm
10:45 AM 53.8°F12.1°C 33.9°F1.1°C 47% 0.4 mph SW0.6 kmh SW 2.5 mph4.0 kmh 30.24 in1024.0 mb 0.00 in0.0 mm 0.00 in/hr0.0 mm/hr 0.00 in0.0 mm
10:40 AM 53.3°F11.8°C 33.5°F0.8°C 47% 1.1 mph SW1.8 kmh SW 2.5 mph4.0 kmh 30.24 in1024.0 mb 0.00 in0.0 mm 0.00 in/hr0.0 mm/hr 0.00 in0.0 mm
10:35 AM 52.9°F11.6°C 33.1°F0.6°C 47% 1.7 mph SSW2.7 kmh SSW 3.8 mph6.1 kmh 30.24 in1024.0 mb 0.00 in0.0 mm 0.00 in/hr0.0 mm/hr 0.00 in0.0 mm
10:30 AM 52.2°F11.2°C 32.5°F0.3°C 47% 3.2 mph SW5.1 kmh SW 3.8 mph6.1 kmh 30.25 in1024.4 mb 0.00 in0.0 mm 0.00 in/hr0.0 mm/hr 0.00 in0.0 mm
10:25 AM 51.5°F10.8°C 32.4°F0.2°C 48% 0.4 mph WSW0.6 kmh WSW 2.5 mph4.0 kmh 30.25 in1024.4 mb 0.00 in0.0 mm 0.00 in/hr0.0 mm/hr 0.00 in0.0 mm
10:20 AM 50.9°F10.5°C 32.0°F0.0°C 48% 1.8 mph N2.9 kmh N 2.9 mph4.7 kmh 30.25 in1024.4 mb 0.00 in0.0 mm 0.00 in/hr0.0 mm/hr 0.00 in0.0 mm
10:15 AM 50.4°F10.2°C 32.0°F0.0°C 49% 1.6 mph 2.6 kmh 4.5 mph7.2 kmh 30.25 in1024.4 mb 0.00 in0.0 mm 0.00 in/hr0.0 mm/hr 0.00 in0.0 mm
10:10 AM 49.9°F9.9°C 31.0°F-0.6°C 48% Calm Calm 5.6 mph9.0 kmh 30.26 in1024.7 mb 0.00 in0.0 mm 0.00 in/hr0.0 mm/hr 0.00 in0.0 mm
10:05 AM 49.5°F9.7°C 31.2°F-0.4°C 49% 3.2 mph WSW5.1 kmh WSW 5.6 mph9.0 kmh 30.26 in1024.7 mb 0.00 in0.0 mm 0.00 in/hr0.0 mm/hr 0.00 in0.0 mm
10:00 AM 49.3°F9.6°C 31.0°F-0.6°C 49% 4.3 mph NW6.9 kmh NW 4.7 mph7.6 kmh 30.26 in1024.7 mb 0.00 in0.0 mm 0.00 in/hr0.0 mm/hr 0.00 in0.0 mm
09:55 AM 49.0°F9.4°C 31.1°F-0.5°C 50% 2.8 mph W4.5 kmh W 4.0 mph6.4 kmh 30.26 in1024.7 mb 0.00 in0.0 mm 0.00 in/hr0.0 mm/hr 0.00 in0.0 mm
09:50 AM 48.6°F9.2°C 30.8°F-0.7°C 50% 1.2 mph NW1.9 kmh NW 4.3 mph6.9 kmh 30.26 in1024.7 mb 0.00 in0.0 mm 0.00 in/hr0.0 mm/hr 0.00 in0.0 mm
09:45 AM 48.2°F9.0°C 30.9°F-0.6°C 51% 2.1 mph NNW3.4 kmh NNW 4.7 mph7.6 kmh 30.26 in1024.7 mb 0.00 in0.0 mm 0.00 in/hr0.0 mm/hr 0.00 in0.0 mm
09:40 AM 47.9°F8.8°C 30.6°F-0.8°C 51% 4.1 mph NNW6.6 kmh NNW 4.7 mph7.6 kmh 30.26 in1024.7 mb 0.00 in0.0 mm 0.00 in/hr0.0 mm/hr 0.00 in0.0 mm
09:35 AM 47.5°F8.6°C 30.7°F-0.7°C 52% 2.6 mph 4.2 kmh 4.7 mph7.6 kmh 30.26 in1024.7 mb 0.00 in0.0 mm 0.00 in/hr0.0 mm/hr 0.00 in0.0 mm
09:30 AM 47.3°F8.5°C 30.5°F-0.8°C 52% 2.5 mph N4.0 kmh N 4.7 mph7.6 kmh 30.26 in1024.7 mb 0.00 in0.0 mm 0.00 in/hr0.0 mm/hr 0.00 in0.0 mm
09:25 AM 47.0°F8.3°C 30.7°F-0.7°C 53% 1.0 mph N1.6 kmh N 9.8 mph15.8 kmh 30.26 in1024.7 mb 0.00 in0.0 mm 0.00 in/hr0.0 mm/hr 0.00 in0.0 mm
09:20 AM 46.8°F8.2°C 30.5°F-0.8°C 53% 5.3 mph WSW8.5 kmh WSW 9.8 mph15.8 kmh 30.26 in1024.7 mb 0.00 in0.0 mm 0.00 in/hr0.0 mm/hr 0.00 in0.0 mm
09:15 AM 46.4°F8.0°C 30.2°F-1.0°C 53% 3.3 mph WSW5.3 kmh WSW 8.3 mph13.4 kmh 30.26 in1024.7 mb 0.00 in0.0 mm 0.00 in/hr0.0 mm/hr 0.00 in0.0 mm
09:10 AM 46.3°F7.9°C 30.0°F-1.1°C 53% 6.0 mph WSW9.7 kmh WSW 8.3 mph13.4 kmh 30.26 in1024.7 mb 0.00 in0.0 mm 0.00 in/hr0.0 mm/hr 0.00 in0.0 mm
09:05 AM 45.9°F7.7°C 30.2°F-1.0°C 54% 6.4 mph SW10.3 kmh SW 9.4 mph15.1 kmh 30.26 in1024.7 mb 0.00 in0.0 mm 0.00 in/hr0.0 mm/hr 0.00 in0.0 mm
09:00 AM 45.5°F7.5°C 29.8°F-1.2°C 54% 7.4 mph SW11.9 kmh SW 9.6 mph15.4 kmh 30.26 in1024.7 mb 0.00 in0.0 mm 0.00 in/hr0.0 mm/hr 0.00 in0.0 mm
08:54 AM 45.0°F7.2°C 29.8°F-1.2°C 55% 7.5 mph SW12.1 kmh SW 12.1 mph19.5 kmh 30.26 in1024.7 mb 0.00 in0.0 mm 0.00 in/hr0.0 mm/hr 0.00 in0.0 mm
08:49 AM 44.6°F7.0°C 29.4°F-1.4°C 55% 9.4 mph WSW15.1 kmh WSW 12.1 mph19.5 kmh 30.26 in1024.7 mb 0.00 in0.0 mm 0.00 in/hr0.0 mm/hr 0.00 in0.0 mm
08:44 AM 43.9°F6.6°C 29.2°F-1.6°C 56% 8.1 mph SW13.0 kmh SW 10.7 mph17.2 kmh 30.25 in1024.4 mb 0.00 in0.0 mm 0.00 in/hr0.0 mm/hr 0.00 in0.0 mm
08:40 AM 43.6°F6.4°C 29.3°F-1.5°C 57% 9.0 mph WSW14.5 kmh WSW 10.1 mph16.3 kmh 30.26 in1024.7 mb 0.00 in0.0 mm 0.00 in/hr0.0 mm/hr 0.00 in0.0 mm
08:35 AM 43.4°F6.3°C 29.1°F-1.6°C 57% 7.5 mph SW12.1 kmh SW 9.2 mph14.8 kmh 30.26 in1024.7 mb 0.00 in0.0 mm 0.00 in/hr0.0 mm/hr 0.00 in0.0 mm
08:30 AM 43.2°F6.2°C 28.9°F-1.7°C 57% 8.3 mph SW13.4 kmh SW 9.2 mph14.8 kmh 30.25 in1024.4 mb 0.00 in0.0 mm 0.00 in/hr0.0 mm/hr 0.00 in0.0 mm
08:25 AM 43.2°F6.2°C 28.9°F-1.7°C 57% 7.1 mph SW11.4 kmh SW 8.9 mph14.3 kmh 30.25 in1024.4 mb 0.00 in0.0 mm 0.00 in/hr0.0 mm/hr 0.00 in0.0 mm
08:20 AM 43.0°F6.1°C 28.8°F-1.8°C 57% 6.9 mph SW11.1 kmh SW 8.7 mph14.0 kmh 30.26 in1024.7 mb 0.00 in0.0 mm 0.00 in/hr0.0 mm/hr 0.00 in0.0 mm
08:15 AM 42.3°F5.7°C 28.5°F-1.9°C 58% 7.5 mph SW12.1 kmh SW 8.7 mph14.0 kmh 30.25 in1024.4 mb 0.00 in0.0 mm 0.00 in/hr0.0 mm/hr 0.00 in0.0 mm
08:10 AM 41.9°F5.5°C 28.2°F-2.1°C 58% 3.0 mph SW4.8 kmh SW 3.4 mph5.5 kmh 30.25 in1024.4 mb 0.00 in0.0 mm 0.00 in/hr0.0 mm/hr 0.00 in0.0 mm
08:05 AM 41.8°F5.4°C 27.5°F-2.5°C 57% 2.2 mph WSW3.5 kmh WSW 4.0 mph6.4 kmh 30.24 in1024.0 mb 0.00 in0.0 mm 0.00 in/hr0.0 mm/hr 0.00 in0.0 mm
08:00 AM 41.9°F5.5°C 27.7°F-2.4°C 57% 0.4 mph E0.6 kmh E 7.2 mph11.6 kmh 30.24 in1024.0 mb 0.00 in0.0 mm 0.00 in/hr0.0 mm/hr 0.00 in0.0 mm
07:54 AM 42.1°F5.6°C 27.9°F-2.3°C 57% 6.4 mph SW10.3 kmh SW 9.4 mph15.1 kmh 30.24 in1024.0 mb 0.00 in0.0 mm 0.00 in/hr0.0 mm/hr 0.00 in0.0 mm
07:49 AM 41.9°F5.5°C 27.7°F-2.4°C 57% 6.2 mph SW10.0 kmh SW 9.4 mph15.1 kmh 30.24 in1024.0 mb 0.00 in0.0 mm 0.00 in/hr0.0 mm/hr 0.00 in0.0 mm
07:44 AM 41.9°F5.5°C 28.2°F-2.1°C 58% 6.9 mph SW11.1 kmh SW 9.4 mph15.1 kmh 30.24 in1024.0 mb 0.00 in0.0 mm 0.00 in/hr0.0 mm/hr 0.00 in0.0 mm
07:39 AM 41.6°F5.3°C 27.9°F-2.3°C 58% 7.7 mph WSW12.4 kmh WSW 9.8 mph15.8 kmh 30.25 in1024.4 mb 0.00 in0.0 mm 0.00 in/hr0.0 mm/hr 0.00 in0.0 mm
07:34 AM 41.6°F5.3°C 27.9°F-2.3°C 58% 8.5 mph WSW13.7 kmh WSW 9.8 mph15.8 kmh 30.25 in1024.4 mb 0.00 in0.0 mm 0.00 in/hr0.0 mm/hr 0.00 in0.0 mm
07:29 AM 41.4°F5.2°C 27.7°F-2.4°C 58% 8.1 mph WSW13.0 kmh WSW 10.7 mph17.2 kmh 30.25 in1024.4 mb 0.00 in0.0 mm 0.00 in/hr0.0 mm/hr 0.00 in0.0 mm
07:24 AM 41.4°F5.2°C 27.3°F-2.6°C 57% 10.4 mph SW16.7 kmh SW 10.7 mph17.2 kmh 30.25 in1024.4 mb 0.00 in0.0 mm 0.00 in/hr0.0 mm/hr 0.00 in0.0 mm
07:19 AM 41.6°F5.3°C 27.5°F-2.5°C 57% 6.9 mph SW11.1 kmh SW 9.8 mph15.8 kmh 30.25 in1024.4 mb 0.00 in0.0 mm 0.00 in/hr0.0 mm/hr 0.00 in0.0 mm
07:14 AM 41.6°F5.3°C 27.5°F-2.5°C 57% 9.8 mph WSW15.8 kmh WSW 11.4 mph18.3 kmh 30.25 in1024.4 mb 0.00 in0.0 mm 0.00 in/hr0.0 mm/hr 0.00 in0.0 mm
07:10 AM 41.6°F5.3°C 27.5°F-2.5°C 57% 10.5 mph WSW16.9 kmh WSW 11.4 mph18.3 kmh 30.25 in1024.4 mb 0.00 in0.0 mm 0.00 in/hr0.0 mm/hr 0.00 in0.0 mm
07:05 AM 41.4°F5.2°C 27.3°F-2.6°C 57% 10.3 mph WSW16.6 kmh WSW 11.4 mph18.3 kmh 30.25 in1024.4 mb 0.00 in0.0 mm 0.00 in/hr0.0 mm/hr 0.00 in0.0 mm
07:00 AM 41.4°F5.2°C 27.3°F-2.6°C 57% 9.4 mph SW15.1 kmh SW 11.2 mph18.0 kmh 30.25 in1024.4 mb 0.00 in0.0 mm 0.00 in/hr0.0 mm/hr 0.00 in0.0 mm
06:54 AM 41.2°F5.1°C 27.1°F-2.7°C 57% 7.3 mph SW11.7 kmh SW 11.2 mph18.0 kmh 30.25 in1024.4 mb 0.00 in0.0 mm 0.00 in/hr0.0 mm/hr 0.00 in0.0 mm
06:49 AM 41.0°F5.0°C 26.9°F-2.8°C 57% 8.2 mph SW13.2 kmh SW 8.3 mph13.4 kmh 30.25 in1024.4 mb 0.00 in0.0 mm 0.00 in/hr0.0 mm/hr 0.00 in0.0 mm
06:44 AM 41.2°F5.1°C 27.1°F-2.7°C 57% 6.7 mph WSW10.8 kmh WSW 9.2 mph14.8 kmh 30.25 in1024.4 mb 0.00 in0.0 mm 0.00 in/hr0.0 mm/hr 0.00 in0.0 mm
06:39 AM 41.4°F5.2°C 26.8°F-2.9°C 56% 7.8 mph SW12.6 kmh SW 9.2 mph14.8 kmh 30.25 in1024.4 mb 0.00 in0.0 mm 0.00 in/hr0.0 mm/hr 0.00 in0.0 mm
06:34 AM 41.4°F5.2°C 26.8°F-2.9°C 56% 7.9 mph SW12.7 kmh SW 8.1 mph13.0 kmh 30.25 in1024.4 mb 0.00 in0.0 mm 0.00 in/hr0.0 mm/hr 0.00 in0.0 mm
06:29 AM 41.6°F5.3°C 26.6°F-3.0°C 55% 6.1 mph WSW9.8 kmh WSW 7.2 mph11.6 kmh 30.25 in1024.4 mb 0.00 in0.0 mm 0.00 in/hr0.0 mm/hr 0.00 in0.0 mm
06:24 AM 42.1°F5.6°C 27.0°F-2.8°C 55% 5.3 mph WSW8.5 kmh WSW 7.6 mph12.2 kmh 30.25 in1024.4 mb 0.00 in0.0 mm 0.00 in/hr0.0 mm/hr 0.00 in0.0 mm
06:19 AM 42.1°F5.6°C 27.0°F-2.8°C 55% 6.9 mph WSW11.1 kmh WSW 9.2 mph14.8 kmh 30.25 in1024.4 mb 0.00 in0.0 mm 0.00 in/hr0.0 mm/hr 0.00 in0.0 mm
06:14 AM 42.3°F5.7°C 26.7°F-2.9°C 54% 6.5 mph SW10.5 kmh SW 9.2 mph14.8 kmh 30.25 in1024.4 mb 0.00 in0.0 mm 0.00 in/hr0.0 mm/hr 0.00 in0.0 mm
06:09 AM 42.5°F5.8°C 26.6°F-3.0°C 53% 6.6 mph SW10.6 kmh SW 8.5 mph13.7 kmh 30.25 in1024.4 mb 0.00 in0.0 mm 0.00 in/hr0.0 mm/hr 0.00 in0.0 mm
06:04 AM 43.0°F6.1°C 27.0°F-2.8°C 53% 6.7 mph SW10.8 kmh SW 10.5 mph16.9 kmh 30.25 in1024.4 mb 0.00 in0.0 mm 0.00 in/hr0.0 mm/hr 0.00 in0.0 mm
05:59 AM 43.0°F6.1°C 27.0°F-2.8°C 53% 7.3 mph WSW11.7 kmh WSW 10.5 mph16.9 kmh 30.25 in1024.4 mb 0.00 in0.0 mm 0.00 in/hr0.0 mm/hr 0.00 in0.0 mm
05:54 AM 43.2°F6.2°C 27.2°F-2.7°C 53% 9.5 mph WSW15.3 kmh WSW 11.2 mph18.0 kmh 30.25 in1024.4 mb 0.00 in0.0 mm 0.00 in/hr0.0 mm/hr 0.00 in0.0 mm
05:49 AM 43.2°F6.2°C 27.2°F-2.7°C 53% 8.4 mph SW13.5 kmh SW 11.2 mph18.0 kmh 30.25 in1024.4 mb 0.00 in0.0 mm 0.00 in/hr0.0 mm/hr 0.00 in0.0 mm
05:44 AM 43.2°F6.2°C 27.2°F-2.7°C 53% 9.5 mph WSW15.3 kmh WSW 12.1 mph19.5 kmh 30.24 in1024.0 mb 0.00 in0.0 mm 0.00 in/hr0.0 mm/hr 0.00 in0.0 mm
05:39 AM 43.2°F6.2°C 27.2°F-2.7°C 53% 11.3 mph WSW18.2 kmh WSW 12.1 mph19.5 kmh 30.24 in1024.0 mb 0.00 in0.0 mm 0.00 in/hr0.0 mm/hr 0.00 in0.0 mm
05:34 AM 43.2°F6.2°C 27.2°F-2.7°C 53% 9.6 mph WSW15.4 kmh WSW 9.8 mph15.8 kmh 30.24 in1024.0 mb 0.00 in0.0 mm 0.00 in/hr0.0 mm/hr 0.00 in0.0 mm
05:29 AM 43.4°F6.3°C 27.4°F-2.6°C 53% 5.2 mph SW8.4 kmh SW 8.9 mph14.3 kmh 30.24 in1024.0 mb 0.00 in0.0 mm 0.00 in/hr0.0 mm/hr 0.00 in0.0 mm
05:24 AM 43.6°F6.4°C 27.1°F-2.7°C 52% 7.5 mph WSW12.1 kmh WSW 10.3 mph16.6 kmh 30.24 in1024.0 mb 0.00 in0.0 mm 0.00 in/hr0.0 mm/hr 0.00 in0.0 mm
05:19 AM 43.7°F6.5°C 27.3°F-2.6°C 52% 10.2 mph WSW16.4 kmh WSW 13.2 mph21.2 kmh 30.24 in1024.0 mb 0.00 in0.0 mm 0.00 in/hr0.0 mm/hr 0.00 in0.0 mm
05:14 AM 43.9°F6.6°C 27.5°F-2.5°C 52% 12.4 mph WSW20.0 kmh WSW 13.2 mph21.2 kmh 30.24 in1024.0 mb 0.00 in0.0 mm 0.00 in/hr0.0 mm/hr 0.00 in0.0 mm
05:09 AM 43.9°F6.6°C 27.5°F-2.5°C 52% 10.1 mph SW16.3 kmh SW 10.7 mph17.2 kmh 30.24 in1024.0 mb 0.00 in0.0 mm 0.00 in/hr0.0 mm/hr 0.00 in0.0 mm
05:04 AM 43.9°F6.6°C 27.5°F-2.5°C 52% 10.6 mph SW17.1 kmh SW 10.7 mph17.2 kmh 30.24 in1024.0 mb 0.00 in0.0 mm 0.00 in/hr0.0 mm/hr 0.00 in0.0 mm
04:58 AM 43.9°F6.6°C 27.5°F-2.5°C 52% 7.7 mph SW12.4 kmh SW 10.5 mph16.9 kmh 30.24 in1024.0 mb 0.00 in0.0 mm 0.00 in/hr0.0 mm/hr 0.00 in0.0 mm
04:53 AM 43.9°F6.6°C 27.9°F-2.3°C 53% 8.5 mph WSW13.7 kmh WSW 11.4 mph18.3 kmh 30.23 in1023.7 mb 0.00 in0.0 mm 0.00 in/hr0.0 mm/hr 0.00 in0.0 mm
04:48 AM 43.9°F6.6°C 27.9°F-2.3°C 53% 10.4 mph SW16.7 kmh SW 11.4 mph18.3 kmh 30.23 in1023.7 mb 0.00 in0.0 mm 0.00 in/hr0.0 mm/hr 0.00 in0.0 mm
04:43 AM 43.9°F6.6°C 27.9°F-2.3°C 53% 5.3 mph WSW8.5 kmh WSW 11.0 mph17.7 kmh 30.23 in1023.7 mb 0.00 in0.0 mm 0.00 in/hr0.0 mm/hr 0.00 in0.0 mm
04:39 AM 44.1°F6.7°C 28.0°F-2.2°C 53% 5.4 mph SW8.7 kmh SW 11.0 mph17.7 kmh 30.23 in1023.7 mb 0.00 in0.0 mm 0.00 in/hr0.0 mm/hr 0.00 in0.0 mm
04:34 AM 43.6°F6.4°C 27.6°F-2.4°C 53% 10.6 mph WSW17.1 kmh WSW 11.0 mph17.7 kmh 30.24 in1024.0 mb 0.00 in0.0 mm 0.00 in/hr0.0 mm/hr 0.00 in0.0 mm
04:29 AM 43.0°F6.1°C 27.9°F-2.3°C 55% 8.6 mph SW13.8 kmh SW 9.2 mph14.8 kmh 30.24 in1024.0 mb 0.00 in0.0 mm 0.00 in/hr0.0 mm/hr 0.00 in0.0 mm
04:24 AM 42.7°F5.9°C 27.5°F-2.5°C 55% 7.1 mph SW11.4 kmh SW 9.2 mph14.8 kmh 30.24 in1024.0 mb 0.00 in0.0 mm 0.00 in/hr0.0 mm/hr 0.00 in0.0 mm
04:19 AM 42.1°F5.6°C 27.5°F-2.5°C 56% 6.9 mph SW11.1 kmh SW 7.6 mph12.2 kmh 30.24 in1024.0 mb 0.00 in0.0 mm 0.00 in/hr0.0 mm/hr 0.00 in0.0 mm
04:14 AM 41.9°F5.5°C 27.7°F-2.4°C 57% 6.3 mph SW10.1 kmh SW 7.4 mph11.9 kmh 30.24 in1024.0 mb 0.00 in0.0 mm 0.00 in/hr0.0 mm/hr 0.00 in0.0 mm
04:09 AM 41.8°F5.4°C 27.5°F-2.5°C 57% 2.9 mph SW4.7 kmh SW 5.4 mph8.7 kmh 30.24 in1024.0 mb 0.00 in0.0 mm 0.00 in/hr0.0 mm/hr 0.00 in0.0 mm
04:04 AM 41.8°F5.4°C 27.5°F-2.5°C 57% 4.0 mph SW6.4 kmh SW 6.9 mph11.1 kmh 30.24 in1024.0 mb 0.00 in0.0 mm 0.00 in/hr0.0 mm/hr 0.00 in0.0 mm
03:58 AM 41.2°F5.1°C 27.6°F-2.4°C 58% 6.3 mph SW10.1 kmh SW 6.9 mph11.1 kmh 30.24 in1024.0 mb 0.00 in0.0 mm 0.00 in/hr0.0 mm/hr 0.00 in0.0 mm
03:53 AM 40.9°F4.9°C 27.2°F-2.7°C 58% 0.4 mph WSW0.6 kmh WSW 3.6 mph5.8 kmh 30.25 in1024.4 mb 0.00 in0.0 mm 0.00 in/hr0.0 mm/hr 0.00 in0.0 mm
03:48 AM 40.7°F4.8°C 27.0°F-2.8°C 58% 2.7 mph SW4.3 kmh SW 3.6 mph5.8 kmh 30.25 in1024.4 mb 0.00 in0.0 mm 0.00 in/hr0.0 mm/hr 0.00 in0.0 mm
03:43 AM 40.9°F4.9°C 27.2°F-2.7°C 58% 0.2 mph SW0.3 kmh SW 3.4 mph5.5 kmh 30.25 in1024.4 mb 0.00 in0.0 mm 0.00 in/hr0.0 mm/hr 0.00 in0.0 mm
03:38 AM 41.0°F5.0°C 27.4°F-2.6°C 58% 1.5 mph WSW2.4 kmh WSW 4.7 mph7.6 kmh 30.25 in1024.4 mb 0.00 in0.0 mm 0.00 in/hr0.0 mm/hr 0.00 in0.0 mm
03:33 AM 41.2°F5.1°C 27.6°F-2.4°C 58% 2.3 mph WSW3.7 kmh WSW 4.7 mph7.6 kmh 30.25 in1024.4 mb 0.00 in0.0 mm 0.00 in/hr0.0 mm/hr 0.00 in0.0 mm
03:28 AM 41.4°F5.2°C 27.3°F-2.6°C 57% 0.8 mph W1.3 kmh W 3.4 mph5.5 kmh 30.25 in1024.4 mb 0.00 in0.0 mm 0.00 in/hr0.0 mm/hr 0.00 in0.0 mm
03:23 AM 41.4°F5.2°C 27.7°F-2.4°C 58% Calm Calm 6.5 mph10.5 kmh 30.26 in1024.7 mb 0.00 in0.0 mm 0.00 in/hr0.0 mm/hr 0.00 in0.0 mm
03:18 AM 41.6°F5.3°C 27.9°F-2.3°C 58% 2.2 mph SSW3.5 kmh SSW 6.5 mph10.5 kmh 30.26 in1024.7 mb 0.00 in0.0 mm 0.00 in/hr0.0 mm/hr 0.00 in0.0 mm
03:13 AM 41.4°F5.2°C 27.7°F-2.4°C 58% 0.3 mph SW0.5 kmh SW 6.0 mph9.7 kmh 30.26 in1024.7 mb 0.00 in0.0 mm 0.00 in/hr0.0 mm/hr 0.00 in0.0 mm
03:09 AM 41.4°F5.2°C 27.7°F-2.4°C 58% 1.1 mph SW1.8 kmh SW 6.0 mph9.7 kmh 30.26 in1024.7 mb 0.00 in0.0 mm 0.00 in/hr0.0 mm/hr 0.00 in0.0 mm
03:04 AM 41.2°F5.1°C 27.6°F-2.4°C 58% 4.3 mph SW6.9 kmh SW 6.0 mph9.7 kmh 30.26 in1024.7 mb 0.00 in0.0 mm 0.00 in/hr0.0 mm/hr 0.00 in0.0 mm
02:58 AM 41.0°F5.0°C 27.4°F-2.6°C 58% 0.3 mph SW0.5 kmh SW 4.0 mph6.4 kmh 30.26 in1024.7 mb 0.00 in0.0 mm 0.00 in/hr0.0 mm/hr 0.00 in0.0 mm
02:53 AM 40.9°F4.9°C 27.2°F-2.7°C 58% 0.8 mph NW1.3 kmh NW 5.1 mph8.2 kmh 30.26 in1024.7 mb 0.00 in0.0 mm 0.00 in/hr0.0 mm/hr 0.00 in0.0 mm
02:48 AM 41.0°F5.0°C 27.4°F-2.6°C 58% 4.3 mph 6.9 kmh 6.9 mph11.1 kmh 30.27 in1025.1 mb 0.00 in0.0 mm 0.00 in/hr0.0 mm/hr 0.00 in0.0 mm
02:43 AM 41.4°F5.2°C 27.3°F-2.6°C 57% 6.6 mph 10.6 kmh 6.9 mph11.1 kmh 30.26 in1024.7 mb 0.00 in0.0 mm 0.00 in/hr0.0 mm/hr 0.00 in0.0 mm
02:38 AM 41.6°F5.3°C 27.9°F-2.3°C 58% 2.6 mph N4.2 kmh N 3.4 mph5.5 kmh 30.27 in1025.1 mb 0.00 in0.0 mm 0.00 in/hr0.0 mm/hr 0.00 in0.0 mm
02:33 AM 41.6°F5.3°C 27.9°F-2.3°C 58% 1.1 mph 1.8 kmh 2.5 mph4.0 kmh 30.27 in1025.1 mb 0.00 in0.0 mm 0.00 in/hr0.0 mm/hr 0.00 in0.0 mm
02:28 AM 41.6°F5.3°C 27.9°F-2.3°C 58% 0.2 mph 0.3 kmh 2.5 mph4.0 kmh 30.27 in1025.1 mb 0.00 in0.0 mm 0.00 in/hr0.0 mm/hr 0.00 in0.0 mm
02:23 AM 41.8°F5.4°C 28.0°F-2.2°C 58% 1.5 mph ENE2.4 kmh ENE 3.1 mph5.0 kmh 30.27 in1025.1 mb 0.00 in0.0 mm 0.00 in/hr0.0 mm/hr 0.00 in0.0 mm
02:18 AM 42.1°F5.6°C 28.4°F-2.0°C 58% 2.0 mph WSW3.2 kmh WSW 5.6 mph9.0 kmh 30.28 in1025.4 mb 0.00 in0.0 mm 0.00 in/hr0.0 mm/hr 0.00 in0.0 mm
02:13 AM 41.9°F5.5°C 28.2°F-2.1°C 58% 3.8 mph WSW6.1 kmh WSW 6.0 mph9.7 kmh 30.28 in1025.4 mb 0.00 in0.0 mm 0.00 in/hr0.0 mm/hr 0.00 in0.0 mm
02:08 AM 41.9°F5.5°C 28.2°F-2.1°C 58% 1.8 mph SSE2.9 kmh SSE 6.0 mph9.7 kmh 30.28 in1025.4 mb 0.00 in0.0 mm 0.00 in/hr0.0 mm/hr 0.00 in0.0 mm
02:03 AM 41.8°F5.4°C 28.0°F-2.2°C 58% 2.1 mph NNE3.4 kmh NNE 8.5 mph13.7 kmh 30.28 in1025.4 mb 0.00 in0.0 mm 0.00 in/hr0.0 mm/hr 0.00 in0.0 mm
01:58 AM 41.8°F5.4°C 28.0°F-2.2°C 58% 2.6 mph 4.2 kmh 8.5 mph13.7 kmh 30.28 in1025.4 mb 0.00 in0.0 mm 0.00 in/hr0.0 mm/hr 0.00 in0.0 mm
01:53 AM 41.8°F5.4°C 28.4°F-2.0°C 59% 1.5 mph NE2.4 kmh NE 4.7 mph7.6 kmh 30.28 in1025.4 mb 0.00 in0.0 mm 0.00 in/hr0.0 mm/hr 0.00 in0.0 mm
01:48 AM 41.8°F5.4°C 28.4°F-2.0°C 59% 3.0 mph NNE4.8 kmh NNE 4.7 mph7.6 kmh 30.28 in1025.4 mb 0.00 in0.0 mm 0.00 in/hr0.0 mm/hr 0.00 in0.0 mm
01:43 AM 41.6°F5.3°C 28.3°F-2.1°C 59% 1.5 mph NNE2.4 kmh NNE 5.4 mph8.7 kmh 30.28 in1025.4 mb 0.00 in0.0 mm 0.00 in/hr0.0 mm/hr 0.00 in0.0 mm
01:38 AM 41.6°F5.3°C 28.3°F-2.1°C 59% 1.7 mph 2.7 kmh 5.4 mph8.7 kmh 30.28 in1025.4 mb 0.00 in0.0 mm 0.00 in/hr0.0 mm/hr 0.00 in0.0 mm
01:33 AM 41.4°F5.2°C 28.6°F-1.9°C 60% 3.9 mph 6.3 kmh 4.0 mph6.4 kmh 30.28 in1025.4 mb 0.00 in0.0 mm 0.00 in/hr0.0 mm/hr 0.00 in0.0 mm
01:28 AM 41.4°F5.2°C 28.6°F-1.9°C 60% 1.5 mph N2.4 kmh N 3.8 mph6.1 kmh 30.28 in1025.4 mb 0.00 in0.0 mm 0.00 in/hr0.0 mm/hr 0.00 in0.0 mm
01:23 AM 41.4°F5.2°C 28.6°F-1.9°C 60% 0.3 mph N0.5 kmh N 2.2 mph3.5 kmh 30.27 in1025.1 mb 0.00 in0.0 mm 0.00 in/hr0.0 mm/hr 0.00 in0.0 mm
01:18 AM 41.2°F5.1°C 28.5°F-1.9°C 60% 0.3 mph NW0.5 kmh NW 2.5 mph4.0 kmh 30.27 in1025.1 mb 0.00 in0.0 mm 0.00 in/hr0.0 mm/hr 0.00 in0.0 mm
01:13 AM 41.0°F5.0°C 28.6°F-1.9°C 61% 1.8 mph 2.9 kmh 3.4 mph5.5 kmh 30.27 in1025.1 mb 0.00 in0.0 mm 0.00 in/hr0.0 mm/hr 0.00 in0.0 mm
01:08 AM 40.9°F4.9°C 28.4°F-2.0°C 61% 2.3 mph NNW3.7 kmh NNW 3.4 mph5.5 kmh 30.27 in1025.1 mb 0.00 in0.0 mm 0.00 in/hr0.0 mm/hr 0.00 in0.0 mm
01:03 AM 41.0°F5.0°C 28.6°F-1.9°C 61% 0.7 mph SE1.1 kmh SE 1.1 mph1.8 kmh 30.27 in1025.1 mb 0.00 in0.0 mm 0.00 in/hr0.0 mm/hr 0.00 in0.0 mm
12:58 AM 41.4°F5.2°C 28.6°F-1.9°C 60% 0.2 mph NE0.3 kmh NE 2.5 mph4.0 kmh 30.27 in1025.1 mb 0.00 in0.0 mm 0.00 in/hr0.0 mm/hr 0.00 in0.0 mm
12:53 AM 41.4°F5.2°C 29.0°F-1.7°C 61% 0.4 mph NNE0.6 kmh NNE 2.5 mph4.0 kmh 30.27 in1025.1 mb 0.00 in0.0 mm 0.00 in/hr0.0 mm/hr 0.00 in0.0 mm
12:48 AM 41.4°F5.2°C 29.3°F-1.5°C 62% 1.9 mph N3.1 kmh N 2.5 mph4.0 kmh 30.27 in1025.1 mb 0.00 in0.0 mm 0.00 in/hr0.0 mm/hr 0.00 in0.0 mm
12:43 AM 41.0°F5.0°C 29.0°F-1.7°C 62% 0.2 mph E0.3 kmh E 2.7 mph4.3 kmh 30.27 in1025.1 mb 0.00 in0.0 mm 0.00 in/hr0.0 mm/hr 0.00 in0.0 mm
12:38 AM 40.7°F4.8°C 29.1°F-1.6°C 63% 1.6 mph NE2.6 kmh NE 2.7 mph4.3 kmh 30.27 in1025.1 mb 0.00 in0.0 mm 0.00 in/hr0.0 mm/hr 0.00 in0.0 mm
12:33 AM 40.5°F4.7°C 28.9°F-1.7°C 63% 1.5 mph NNE2.4 kmh NNE 1.6 mph2.6 kmh 30.28 in1025.4 mb 0.00 in0.0 mm 0.00 in/hr0.0 mm/hr 0.00 in0.0 mm
12:28 AM 40.7°F4.8°C 29.4°F-1.4°C 64% 0.8 mph NNW1.3 kmh NNW 2.9 mph4.7 kmh 30.28 in1025.4 mb 0.00 in0.0 mm 0.00 in/hr0.0 mm/hr 0.00 in0.0 mm
12:23 AM 40.1°F4.5°C 29.3°F-1.5°C 65% 2.0 mph 3.2 kmh 4.7 mph7.6 kmh 30.28 in1025.4 mb 0.00 in0.0 mm 0.00 in/hr0.0 mm/hr 0.00 in0.0 mm
12:18 AM 39.4°F4.1°C 28.5°F-1.9°C 65% 2.2 mph NNE3.5 kmh NNE 4.7 mph7.6 kmh 30.28 in1025.4 mb 0.00 in0.0 mm 0.00 in/hr0.0 mm/hr 0.00 in0.0 mm
12:13 AM 39.2°F4.0°C 28.4°F-2.0°C 65% 2.3 mph 3.7 kmh 4.0 mph6.4 kmh 30.28 in1025.4 mb 0.00 in0.0 mm 0.00 in/hr0.0 mm/hr 0.00 in0.0 mm
12:08 AM 39.1°F3.9°C 28.5°F-1.9°C 66% 0.6 mph NNE1.0 kmh NNE 4.7 mph7.6 kmh 30.27 in1025.1 mb 0.00 in0.0 mm 0.00 in/hr0.0 mm/hr 0.00 in0.0 mm
12:03 AM 38.7°F3.7°C 27.9°F-2.3°C 65% 3.3 mph NNE5.3 kmh NNE 4.7 mph7.6 kmh 30.27 in1025.1 mb 0.00 in0.0 mm 0.00 in/hr0.0 mm/hr 0.00 in0.0 mm